Time;durP1;ratioP1;P1;durP2;ratioP2;P2;SDS_P1;SDS_P2;PMS_P1;PMS_P2;Temp;Humidity;BMP_temperature;BMP_pressure;BME280_temperature;BME280_humidity;BME280_pressure;Samples;Min_cycle;Max_cycle;Signal;HPM_P1;HPM_P2
2022/04/29 00:00:20;;;;;;;13.75;8.40;;;;;;;10.06;55.97;102321.41;687777;28;1175;-80
2022/04/29 00:00:42;;;;;;;14.10;9.00;;;;;;;10.05;55.75;102319.63;690661;28;1161;-81
2022/04/29 00:01:03;;;;;;;12.10;8.77;;;;;;;10.08;55.62;102329.34;688192;28;1138;-81
2022/04/29 00:01:23;;;;;;;13.20;8.87;;;;;;;10.14;55.55;102335.78;685111;28;1128;-81
2022/04/29 00:01:44;;;;;;;12.95;8.80;;;;;;;10.07;55.17;102314.50;693048;28;1924;-81
2022/04/29 00:02:06;;;;;;;12.70;8.57;;;;;;;10.16;55.56;102333.25;693656;28;1599;-81
2022/04/29 00:02:27;;;;;;;16.58;8.70;;;;;;;10.14;55.34;102335.78;696232;28;1102;-81
2022/04/29 00:02:48;;;;;;;17.05;8.40;;;;;;;10.14;55.72;102333.16;685554;28;1240;-81
2022/04/29 00:03:10;;;;;;;17.58;9.00;;;;;;;10.19;55.52;102337.75;687699;28;1291;-80
2022/04/29 00:03:31;;;;;;;13.15;8.80;;;;;;;10.10;55.80;102327.69;690651;28;918;-81
2022/04/29 00:03:53;;;;;;;12.73;8.75;;;;;;;10.11;55.76;102330.41;687965;28;1286;-81
2022/04/29 00:04:14;;;;;;;11.48;8.43;;;;;;;9.99;55.56;102316.66;685148;28;959;-81
2022/04/29 00:04:36;;;;;;;11.48;8.10;;;;;;;9.99;55.51;102316.66;688083;28;783;-81
2022/04/29 00:04:56;;;;;;;12.68;8.55;;;;;;;10.00;55.63;102318.47;687853;28;1113;-81
2022/04/29 00:05:17;;;;;;;15.67;8.90;;;;;;;10.10;55.63;102333.81;687163;28;1246;-81
2022/04/29 00:05:40;;;;;;;13.90;8.70;;;;;;;10.04;55.52;102325.66;687824;28;1635;-81
2022/04/29 00:06:01;;;;;;;12.45;8.52;;;;;;;10.07;55.49;102337.97;694382;28;1414;-80
2022/04/29 00:06:22;;;;;;;11.98;8.60;;;;;;;9.98;55.77;102315.78;692488;28;1335;-81
2022/04/29 00:06:43;;;;;;;12.73;9.07;;;;;;;10.03;55.60;102330.78;690648;28;807;-81
2022/04/29 00:07:06;;;;;;;13.35;8.40;;;;;;;10.03;55.51;102331.69;687816;28;1151;-81
2022/04/29 00:07:27;;;;;;;11.60;7.72;;;;;;;9.97;55.78;102321.78;690446;28;1112;-81
2022/04/29 00:07:48;;;;;;;13.87;8.60;;;;;;;9.97;55.71;102328.75;687827;28;1421;-81
2022/04/29 00:08:10;;;;;;;13.03;8.63;;;;;;;9.95;56.02;102319.94;686085;28;1135;-81
2022/04/29 00:08:30;;;;;;;12.02;8.68;;;;;;;9.94;55.69;102321.63;690662;28;1225;-81
2022/04/29 00:08:51;;;;;;;11.65;8.20;;;;;;;10.01;55.71;102333.28;693453;28;807;-80
2022/04/29 00:09:11;;;;;;;12.37;8.17;;;;;;;9.91;56.05;102312.75;687680;28;1247;-81
2022/04/29 00:09:33;;;;;;;13.30;8.50;;;;;;;9.99;55.79;102328.00;687541;28;1304;-81
2022/04/29 00:09:54;;;;;;;11.80;8.50;;;;;;;9.91;56.09;102311.03;692767;28;1457;-81
2022/04/29 00:10:16;;;;;;;11.98;8.73;;;;;;;9.99;56.01;102324.50;692486;28;1467;-81
2022/04/29 00:10:38;;;;;;;12.40;8.52;;;;;;;9.95;55.96;102312.13;689760;28;1781;-81
2022/04/29 00:10:58;;;;;;;12.85;8.70;;;;;;;9.99;55.92;102316.66;690638;28;1248;-81
2022/04/29 00:11:20;;;;;;;13.53;8.80;;;;;;;10.05;55.77;102330.06;690423;28;1173;-81
2022/04/29 00:11:41;;;;;;;13.02;8.70;;;;;;;9.94;55.70;102310.31;690632;28;1359;-81
2022/04/29 00:12:04;;;;;;;12.90;8.63;;;;;;;10.05;56.08;102327.44;685059;28;1251;-81
2022/04/29 00:12:25;;;;;;;14.20;8.75;;;;;;;10.00;55.59;102323.69;695046;28;1185;-81
2022/04/29 00:12:48;;;;;;;13.38;9.00;;;;;;;10.03;55.64;102325.56;689955;28;1444;-80
2022/04/29 00:13:11;;;;;;;12.93;9.20;;;;;;;10.05;55.80;102334.34;686129;28;1218;-80
2022/04/29 00:13:37;;;;;;;12.15;9.05;;;;;;;10.01;55.82;102325.47;690608;28;1518;-81
2022/04/29 00:13:58;;;;;;;14.95;8.60;;;;;;;10.00;55.73;102327.19;685117;28;1836;-81
2022/04/29 00:14:19;;;;;;;15.50;8.30;;;;;;;9.93;56.03;102311.09;687910;28;1275;-83
2022/04/29 00:14:39;;;;;;;14.75;8.25;;;;;;;9.89;55.87;102306.53;685327;28;844;-83
2022/04/29 00:15:00;;;;;;;12.13;8.43;;;;;;;9.93;56.17;102313.72;687933;28;1366;-83
2022/04/29 00:15:21;;;;;;;12.10;9.10;;;;;;;9.91;56.16;102315.34;687812;28;1120;-81
2022/04/29 00:15:42;;;;;;;13.57;9.35;;;;;;;9.93;56.07;102325.06;685305;28;854;-81
2022/04/29 00:16:05;;;;;;;13.07;9.05;;;;;;;9.87;56.17;102314.28;685050;28;1345;-81
2022/04/29 00:16:26;;;;;;;13.80;8.55;;;;;;;9.92;56.29;102323.25;687851;28;1347;-80
2022/04/29 00:16:47;;;;;;;14.63;8.15;;;;;;;9.96;56.20;102322.59;695468;28;1874;-80
2022/04/29 00:17:08;;;;;;;16.00;8.27;;;;;;;9.98;56.35;102335.75;688863;28;1203;-81
2022/04/29 00:17:28;;;;;;;17.90;8.57;;;;;;;9.96;56.41;102326.94;685209;28;1458;-82
2022/04/29 00:17:49;;;;;;;18.65;8.40;;;;;;;9.92;55.97;102322.34;695337;28;1190;-81
2022/04/29 00:18:12;;;;;;;16.90;8.90;;;;;;;9.87;56.27;102315.19;696001;28;1256;-80
2022/04/29 00:18:33;;;;;;;15.52;8.85;;;;;;;9.88;56.25;102316.06;690470;28;1175;-82
2022/04/29 00:18:54;;;;;;;13.48;9.05;;;;;;;9.86;56.27;102315.09;687155;28;1476;-81
2022/04/29 00:19:15;;;;;;;14.25;9.27;;;;;;;9.80;56.48;102313.06;689647;28;1178;-81
2022/04/29 00:19:35;;;;;;;14.35;9.20;;;;;;;9.83;56.04;102323.63;691172;28;1068;-81
2022/04/29 00:19:56;;;;;;;14.30;9.03;;;;;;;9.87;56.05;102323.00;696292;28;1297;-81
2022/04/29 00:20:17;;;;;;;12.90;8.57;;;;;;;9.87;56.45;102323.00;695389;28;1244;-82
2022/04/29 00:20:38;;;;;;;13.15;9.00;;;;;;;9.91;56.25;102333.59;692917;28;1261;-81
2022/04/29 00:20:59;;;;;;;12.15;8.90;;;;;;;9.78;56.47;102311.16;695969;28;1815;-83
2022/04/29 00:21:20;;;;;;;11.77;9.32;;;;;;;9.81;56.71;102330.50;693155;28;1267;-83
2022/04/29 00:21:41;;;;;;;11.07;9.40;;;;;;;9.83;56.39;102327.97;688673;28;1400;-83
2022/04/29 00:22:01;;;;;;;13.93;9.77;;;;;;;9.82;56.22;102332.28;682623;28;1968;-83
2022/04/29 00:22:22;;;;;;;16.33;9.30;;;;;;;9.73;56.55;102311.78;690616;28;1079;-83
2022/04/29 00:22:44;;;;;;;16.10;8.90;;;;;;;9.78;56.39;102322.50;689300;28;1821;-83
2022/04/29 00:23:05;;;;;;;14.48;8.48;;;;;;;9.72;56.39;102322.16;693303;28;1167;-83
2022/04/29 00:23:25;;;;;;;12.50;8.32;;;;;;;9.68;56.38;102312.34;690607;28;1263;-83
2022/04/29 00:23:46;;;;;;;14.07;8.15;;;;;;;9.76;56.66;102315.41;687846;28;712;-83
2022/04/29 00:24:09;;;;;;;12.47;8.00;;;;;;;9.72;56.70;102319.53;688661;28;1163;-83
2022/04/29 00:24:30;;;;;;;12.35;8.77;;;;;;;9.71;56.27;102312.53;687882;28;1145;-83
2022/04/29 00:24:51;;;;;;;15.45;9.30;;;;;;;9.73;56.25;102316.13;685305;28;847;-83
2022/04/29 00:25:12;;;;;;;15.73;9.00;;;;;;;9.74;56.40;102312.69;687770;28;1207;-83
2022/04/29 00:25:33;;;;;;;16.67;8.50;;;;;;;9.70;56.45;102305.50;690877;28;1114;-85
2022/04/29 00:25:54;;;;;;;15.18;8.75;;;;;;;9.78;56.45;102318.97;689753;28;1686;-84
2022/04/29 00:26:14;;;;;;;15.48;9.00;;;;;;;9.70;56.17;102308.09;694337;28;1340;-83
2022/04/29 00:26:37;;;;;;;14.13;9.07;;;;;;;9.76;56.53;102313.66;690637;28;843;-83
2022/04/29 00:26:58;;;;;;;14.73;8.60;;;;;;;9.72;56.45;102312.59;690022;28;1206;-83
2022/04/29 00:27:18;;;;;;;15.15;8.70;;;;;;;9.80;56.35;102322.56;687965;28;996;-83
2022/04/29 00:27:40;;;;;;;15.98;9.30;;;;;;;9.68;56.71;102302.81;687584;28;1151;-83
2022/04/29 00:28:00;;;;;;;13.68;9.30;;;;;;;9.66;56.37;102301.84;692892;28;1206;-83
2022/04/29 00:28:22;;;;;;;15.93;9.68;;;;;;;9.74;56.51;102315.31;696052;28;1160;-83
2022/04/29 00:28:43;;;;;;;16.08;9.57;;;;;;;9.73;56.43;102314.41;690620;28;815;-83
2022/04/29 00:29:05;;;;;;;17.88;9.75;;;;;;;9.74;56.80;102315.31;683343;28;1227;-83
2022/04/29 00:29:25;;;;;;;17.40;9.30;;;;;;;9.69;56.51;102308.91;685250;28;784;-83
2022/04/29 00:29:46;;;;;;;16.20;8.85;;;;;;;9.74;56.46;102317.91;686069;28;1568;-83
2022/04/29 00:30:09;;;;;;;13.83;8.77;;;;;;;9.70;56.91;102301.19;685369;28;1208;-83
2022/04/29 00:30:30;;;;;;;11.50;8.20;;;;;;;9.71;56.75;102312.53;693263;28;1087;-83
2022/04/29 00:30:51;;;;;;;13.52;8.85;;;;;;;9.72;56.56;102316.94;692522;28;1713;-83
2022/04/29 00:31:11;;;;;;;15.60;9.30;;;;;;;9.67;56.37;102307.94;693190;28;928;-83
2022/04/29 00:31:33;;;;;;;16.42;9.50;;;;;;;9.73;56.55;102321.34;692850;28;1729;-83
2022/04/29 00:31:53;;;;;;;14.05;9.25;;;;;;;9.66;56.92;102314.88;687807;28;1113;-84
2022/04/29 00:32:14;;;;;;;12.77;9.20;;;;;;;9.63;56.81;102303.38;686912;28;1215;-83
2022/04/29 00:32:36;;;;;;;16.30;9.50;;;;;;;9.67;56.72;102314.06;687977;28;697;-83
2022/04/29 00:32:56;;;;;;;17.25;9.07;;;;;;;9.60;56.87;102310.19;687694;28;1742;-83
2022/04/29 00:33:20;;;;;;;18.53;9.20;;;;;;;9.63;57.12;102313.81;687689;28;1298;-83
2022/04/29 00:33:40;;;;;;;17.20;9.18;;;;;;;9.57;56.69;102304.81;690012;28;1514;-84
2022/04/29 00:34:01;;;;;;;17.13;9.27;;;;;;;9.69;56.98;102324.56;688072;28;1041;-83
2022/04/29 00:34:22;;;;;;;15.23;9.35;;;;;;;9.57;56.64;102296.09;687689;28;1153;-83
2022/04/29 00:34:43;;;;;;;16.67;9.50;;;;;;;9.59;56.63;102303.19;690581;28;854;-83
2022/04/29 00:35:06;;;;;;;16.90;9.75;;;;;;;9.68;56.77;102322.78;693013;28;1098;-83
2022/04/29 00:35:26;;;;;;;14.77;9.27;;;;;;;9.63;56.89;102316.41;690557;28;1249;-83
2022/04/29 00:35:47;;;;;;;13.30;9.00;;;;;;;9.64;56.61;102323.44;690573;28;783;-83
2022/04/29 00:36:07;;;;;;;16.08;9.80;;;;;;;9.62;57.04;102319.81;687585;28;1288;-83
2022/04/29 00:36:28;;;;;;;17.38;9.88;;;;;;;9.55;56.87;102308.16;687838;28;1235;-83
2022/04/29 00:36:49;;;;;;;15.95;9.50;;;;;;;9.66;56.62;102319.19;688000;28;787;-83
2022/04/29 00:37:10;;;;;;;13.95;8.80;;;;;;;9.65;57.05;102320.00;688892;28;1305;-84
2022/04/29 00:37:31;;;;;;;13.73;8.80;;;;;;;9.54;56.84;102306.34;695933;28;1534;-83
2022/04/29 00:37:54;;;;;;;15.50;9.25;;;;;;;9.65;57.06;102323.50;688996;28;1793;-83
2022/04/29 00:38:17;;;;;;;15.30;9.38;;;;;;;9.67;56.98;102331.41;693114;28;1301;-83
2022/04/29 00:38:37;;;;;;;16.40;9.30;;;;;;;9.55;57.04;102311.66;687881;28;1339;-83
2022/04/29 00:38:58;;;;;;;14.35;8.90;;;;;;;9.54;57.11;102309.88;685205;28;1173;-83
2022/04/29 00:39:19;;;;;;;15.13;9.40;;;;;;;9.51;56.88;102312.28;689491;28;1326;-83
2022/04/29 00:39:41;;;;;;;14.52;9.30;;;;;;;9.59;57.00;102334.47;692775;28;1618;-83
2022/04/29 00:40:01;;;;;;;17.90;9.38;;;;;;;9.57;56.88;102325.69;693254;28;1237;-83
2022/04/29 00:40:26;;;;;;;19.20;8.30;;;;;;;9.50;56.79;102309.59;693404;28;803;-83
2022/04/29 00:40:48;;;;;;;17.00;7.93;;;;;;;9.50;57.31;102318.31;685081;28;1160;-83
2022/04/29 00:41:09;;;;;;;15.98;8.00;;;;;;;9.54;56.98;102322.00;687838;28;1064;-83
2022/04/29 00:41:57;;;;;;;13.82;8.13;;;;;;;9.58;56.78;102330.06;689934;28;1782;-83
2022/04/29 00:42:23;;;;;;;13.77;8.82;;;;;;;9.57;57.27;102325.69;692327;28;1613;-83
2022/04/29 00:42:45;;;;;;;15.10;8.93;;;;;;;9.54;57.03;102320.31;689657;28;1425;-83
2022/04/29 00:43:05;;;;;;;17.85;9.40;;;;;;;9.55;56.60;102324.69;688072;28;1327;-83
2022/04/29 00:43:27;;;;;;;15.52;9.20;;;;;;;9.51;56.80;102327.91;690629;28;1325;-83
2022/04/29 00:44:02;;;;;;;13.80;8.63;;;;;;;9.54;56.92;102330.72;693237;28;1376;-82
2022/04/29 00:44:22;;;;;;;15.77;8.50;;;;;;;9.55;57.14;102331.59;685227;28;828;-83
2022/04/29 00:44:44;;;;;;;14.25;8.63;;;;;;;9.46;57.15;102322.44;686465;28;1728;-83
2022/04/29 00:45:05;;;;;;;14.55;8.57;;;;;;;9.43;56.96;102308.34;687490;28;1775;-83
2022/04/29 00:45:26;;;;;;;12.57;8.00;;;;;;;9.42;56.81;102315.28;693334;28;1220;-83
2022/04/29 00:45:47;;;;;;;13.73;7.85;;;;;;;9.48;56.99;102330.38;692540;28;1785;-84
2022/04/29 00:46:08;;;;;;;13.30;7.97;;;;;;;9.48;56.91;102334.66;690400;28;1218;-83
2022/04/29 00:46:42;;;;;;;12.18;8.10;;;;;;;9.48;57.28;102339.88;687697;28;1290;-83
2022/04/29 00:47:05;;;;;;;11.52;8.00;;;;;;;9.47;57.20;102331.19;686368;28;1141;-83
2022/04/29 00:47:26;;;;;;;11.38;8.18;;;;;;;9.37;57.20;102324.53;685096;28;1296;-83
2022/04/29 00:47:47;;;;;;;12.93;8.57;;;;;;;9.39;57.48;102327.22;686985;28;1758;-83
2022/04/29 00:48:08;;;;;;;16.80;8.68;;;;;;;9.39;57.29;102322.91;684940;28;1426;-83
2022/04/29 00:48:29;;;;;;;16.77;8.17;;;;;;;9.38;57.39;102317.59;695682;28;1648;-83
2022/04/29 00:48:49;;;;;;;14.50;7.70;;;;;;;9.34;57.54;102318.25;693338;28;771;-83
2022/04/29 00:49:12;;;;;;;11.80;7.60;;;;;;;9.45;57.39;102338.00;691873;28;1247;-83
2022/04/29 00:49:33;;;;;;;13.13;7.82;;;;;;;9.35;57.42;102312.22;692879;28;1141;-83
2022/04/29 00:49:54;;;;;;;11.30;7.70;;;;;;;9.41;57.11;102323.00;690373;28;1040;-83
2022/04/29 00:50:20;;;;;;;11.10;7.50;;;;;;;9.38;57.15;102325.41;690477;28;1271;-83
2022/04/29 00:50:41;;;;;;;11.13;7.65;;;;;;;9.32;57.09;102315.53;696031;28;889;-85
2022/04/29 00:51:01;;;;;;;11.40;7.50;;;;;;;9.28;57.61;102311.84;692517;28;1405;-83
2022/04/29 00:51:25;;;;;;;10.57;7.60;;;;;;;9.37;57.50;102321.94;692509;28;1187;-83
2022/04/29 00:51:49;;;;;;;12.68;7.60;;;;;;;9.29;57.17;102303.22;690443;28;1793;-84
2022/04/29 00:52:13;;;;;;;14.00;8.00;;;;;;;9.32;57.33;102308.63;690405;28;1147;-84
2022/04/29 00:52:36;;;;;;;13.27;7.93;;;;;;;9.30;57.21;102310.25;693387;28;893;-83
2022/04/29 00:53:09;;;;;;;15.52;8.25;;;;;;;9.38;57.21;102326.31;689941;28;1186;-83
2022/04/29 00:53:30;;;;;;;14.80;8.27;;;;;;;9.26;57.51;102308.28;688009;28;882;-83
2022/04/29 00:53:53;;;;;;;14.15;8.10;;;;;;;9.35;57.58;102326.16;686213;28;1738;-83
2022/04/29 00:54:19;;;;;;;13.98;7.88;;;;;;;9.36;57.25;102324.44;688547;28;1500;-83
2022/04/29 00:54:42;;;;;;;12.07;7.40;;;;;;;9.33;57.56;102325.16;691195;28;1819;-83
2022/04/29 00:55:08;;;;;;;10.82;7.55;;;;;;;9.34;57.32;102332.16;684867;28;1158;-83
2022/04/29 00:55:30;;;;;;;10.80;7.40;;;;;;;9.34;57.18;102326.06;687792;28;1261;-83
2022/04/29 00:55:54;;;;;;;10.25;7.50;;;;;;;9.18;57.10;102307.84;687802;28;1237;-83
2022/04/29 00:56:17;;;;;;;12.43;7.80;;;;;;;9.28;57.43;102322.28;687545;28;1374;-83
2022/04/29 00:56:40;;;;;;;14.90;8.15;;;;;;;9.32;57.67;102334.69;690577;28;1272;-83
2022/04/29 00:57:04;;;;;;;14.07;8.15;;;;;;;9.27;57.45;102327.41;690511;28;1189;-83
2022/04/29 00:57:31;;;;;;;13.40;7.90;;;;;;;9.19;57.45;102311.31;693251;28;1389;-83
2022/04/29 00:58:16;;;;;;;12.82;7.60;;;;;;;9.31;57.39;102332.91;690623;28;1596;-83
2022/04/29 00:58:43;;;;;;;14.65;7.72;;;;;;;9.23;57.23;102305.50;687661;28;1164;-84
2022/04/29 00:59:09;;;;;;;13.65;7.75;;;;;;;9.32;57.48;102326.88;685017;28;1227;-83
2022/04/29 00:59:38;;;;;;;12.77;7.80;;;;;;;9.31;57.35;102326.78;688419;28;1592;-83
2022/04/29 01:00:06;;;;;;;12.38;7.88;;;;;;;9.22;57.18;102311.50;693572;28;1788;-83
2022/04/29 01:00:27;;;;;;;12.73;7.60;;;;;;;9.23;57.37;102308.09;687318;28;1129;-83
2022/04/29 01:00:47;;;;;;;12.80;7.80;;;;;;;9.23;57.62;102313.31;692237;28;1737;-83
2022/04/29 01:01:08;;;;;;;11.63;8.10;;;;;;;9.25;57.43;102311.69;689696;28;1199;-82
2022/04/29 01:01:33;;;;;;;11.65;8.20;;;;;;;9.28;57.57;102321.41;690281;28;1354;-83
2022/04/29 01:01:55;;;;;;;11.35;7.40;;;;;;;9.29;57.45;102329.28;686861;28;1914;-83
2022/04/29 01:02:16;;;;;;;12.77;7.53;;;;;;;9.27;57.39;102320.47;690167;28;1418;-83
2022/04/29 01:02:42;;;;;;;14.70;7.90;;;;;;;9.30;57.08;102330.19;690458;28;1093;-83
2022/04/29 01:03:04;;;;;;;16.98;8.23;;;;;;;9.30;57.33;102330.19;685304;28;1284;-83
2022/04/29 01:03:28;;;;;;;14.52;7.75;;;;;;;9.28;57.33;102327.50;687776;28;1185;-83
2022/04/29 01:03:48;;;;;;;13.32;7.30;;;;;;;9.25;57.65;102324.72;687868;28;862;-83
2022/04/29 01:04:12;;;;;;;15.35;7.55;;;;;;;9.27;57.48;102324.81;688280;28;1241;-84
2022/04/29 01:04:40;;;;;;;16.83;8.00;;;;;;;9.11;57.30;102296.94;693222;28;1299;-83
2022/04/29 01:05:06;;;;;;;15.07;7.90;;;;;;;9.15;57.54;102311.97;692794;28;1797;-83
2022/04/29 01:05:27;;;;;;;15.35;7.20;;;;;;;9.19;57.43;102316.53;689722;28;1372;-83
2022/04/29 01:05:48;;;;;;;15.10;7.30;;;;;;;9.13;57.85;102316.16;685109;28;744;-83
2022/04/29 01:06:09;;;;;;;12.48;6.85;;;;;;;9.15;57.44;102304.16;688975;28;1211;-83
2022/04/29 01:06:31;;;;;;;10.68;7.10;;;;;;;9.18;57.48;102317.34;693202;28;1214;-83
2022/04/29 01:06:51;;;;;;;12.20;6.95;;;;;;;9.15;57.53;102319.78;690675;28;791;-83
2022/04/29 01:07:12;;;;;;;13.20;6.82;;;;;;;9.11;57.86;102312.56;693075;28;1161;-83
2022/04/29 01:07:34;;;;;;;14.85;6.90;;;;;;;8.99;58.00;102299.72;687707;28;1482;-83
2022/04/29 01:07:55;;;;;;;15.52;6.68;;;;;;;9.04;57.81;102307.00;687763;28;1209;-83
2022/04/29 01:08:15;;;;;;;14.38;7.07;;;;;;;9.13;57.80;102317.06;690572;28;1227;-83
2022/04/29 01:08:36;;;;;;;11.13;7.00;;;;;;;9.10;57.52;102305.59;694878;28;1045;-83
2022/04/29 01:08:57;;;;;;;13.80;7.50;;;;;;;9.15;57.79;102325.00;693109;28;1081;-84
2022/04/29 01:09:18;;;;;;;15.52;7.55;;;;;;;9.09;57.51;102314.19;690056;28;1035;-83
2022/04/29 01:09:38;;;;;;;14.13;7.20;;;;;;;9.03;57.52;102305.22;684982;28;1599;-83
2022/04/29 01:09:59;;;;;;;12.10;7.40;;;;;;;9.11;57.77;102313.50;690500;28;1204;-83
2022/04/29 01:10:21;;;;;;;13.20;7.20;;;;;;;9.09;57.42;102299.47;692986;28;1290;-83
2022/04/29 01:10:45;;;;;;;16.65;6.88;;;;;;;9.17;57.63;102323.38;690864;28;1595;-83
2022/04/29 01:11:06;;;;;;;16.25;6.70;;;;;;;9.02;57.88;102295.59;687605;28;1340;-83
2022/04/29 01:11:45;;;;;;;14.63;6.90;;;;;;;9.14;57.64;102323.16;687792;28;1227;-83
2022/04/29 01:12:07;;;;;;;12.20;7.10;;;;;;;9.12;57.48;102319.59;690388;28;1539;-83
2022/04/29 01:12:32;;;;;;;10.52;6.93;;;;;;;9.03;57.58;102310.41;687148;28;1360;-83
2022/04/29 01:12:57;;;;;;;11.48;6.78;;;;;;;8.98;57.49;102300.53;692425;28;1671;-83
2022/04/29 01:13:20;;;;;;;13.88;7.20;;;;;;;8.95;57.66;102302.97;695949;28;1356;-83
2022/04/29 01:13:41;;;;;;;16.17;7.72;;;;;;;9.00;57.50;102312.84;695975;28;1346;-83
2022/04/29 01:14:02;;;;;;;13.27;7.95;;;;;;;9.00;57.59;102315.47;687522;28;1757;-83
2022/04/29 01:14:23;;;;;;;14.05;7.80;;;;;;;8.98;57.96;102311.84;687714;28;1208;-83
2022/04/29 01:14:44;;;;;;;13.38;7.78;;;;;;;8.93;57.74;102308.09;690382;28;1885;-83
2022/04/29 01:15:13;;;;;;;13.50;7.47;;;;;;;8.97;57.95;102317.84;688099;28;1295;-83
2022/04/29 01:15:35;;;;;;;11.18;7.10;;;;;;;8.89;57.78;102301.78;685001;28;1442;-83
2022/04/29 01:15:57;;;;;;;11.60;7.43;;;;;;;9.00;58.06;102320.66;687597;28;1301;-83
2022/04/29 01:16:19;;;;;;;14.50;7.72;;;;;;;8.87;57.94;102297.31;687725;28;1383;-83
2022/04/29 01:16:41;;;;;;;13.57;7.70;;;;;;;8.95;57.89;102314.28;685187;28;812;-83
2022/04/29 01:17:02;;;;;;;11.93;7.03;;;;;;;8.86;57.87;102298.09;687882;28;1147;-83
2022/04/29 01:17:22;;;;;;;10.30;6.93;;;;;;;8.95;57.88;102313.41;693316;28;819;-83
2022/04/29 01:17:46;;;;;;;10.82;6.90;;;;;;;8.94;58.14;102320.28;689348;28;1654;-84
2022/04/29 01:18:09;;;;;;;12.98;7.20;;;;;;;8.81;58.47;102299.53;692590;28;1222;-83
2022/04/29 01:18:30;;;;;;;12.65;7.13;;;;;;;8.84;58.30;102307.53;690268;28;1552;-83
2022/04/29 01:18:53;;;;;;;11.52;6.72;;;;;;;8.85;58.12;102306.72;685089;28;1375;-83
2022/04/29 01:19:13;;;;;;;12.98;6.90;;;;;;;8.76;58.26;102294.97;684841;28;1276;-83
2022/04/29 01:19:39;;;;;;;13.15;6.72;;;;;;;8.78;58.25;102297.63;687149;28;1141;-83
2022/04/29 01:20:04;;;;;;;11.38;6.85;;;;;;;8.74;58.33;102291.34;690357;28;1185;-83
2022/04/29 01:20:27;;;;;;;12.13;7.28;;;;;;;8.76;58.57;102299.25;682701;28;1998;-83
2022/04/29 01:21:01;;;;;;;13.50;7.50;;;;;;;8.84;58.17;102312.75;684957;28;1696;-83
2022/04/29 01:21:21;;;;;;;11.77;7.00;;;;;;;8.73;57.76;102292.16;687762;28;1394;-83
2022/04/29 01:21:43;;;;;;;10.30;6.82;;;;;;;8.78;57.92;102297.63;687975;28;1478;-83
2022/04/29 01:22:04;;;;;;;13.13;6.80;;;;;;;8.81;58.07;102312.53;684939;28;1907;-83
2022/04/29 01:22:25;;;;;;;14.68;6.80;;;;;;;8.69;58.42;102295.41;687930;28;862;-83
2022/04/29 01:22:46;;;;;;;14.35;6.70;;;;;;;8.72;58.47;102297.28;691910;28;1615;-83
2022/04/29 01:23:08;;;;;;;11.90;6.70;;;;;;;8.77;57.99;102312.38;686759;28;1151;-83
2022/04/29 01:23:32;;;;;;;11.90;6.93;;;;;;;8.67;58.49;102286.59;690669;28;724;-83
2022/04/29 01:23:52;;;;;;;12.18;7.00;;;;;;;8.71;58.56;102292.88;693206;28;1217;-83
2022/04/29 01:24:13;;;;;;;11.00;6.80;;;;;;;8.70;58.29;102296.28;685789;28;1187;-82
2022/04/29 01:24:34;;;;;;;10.43;6.90;;;;;;;8.74;58.33;102299.16;692442;28;1202;-83
2022/04/29 01:24:54;;;;;;;11.50;6.63;;;;;;;8.74;58.27;102306.97;690356;28;1115;-83
2022/04/29 01:25:15;;;;;;;11.73;6.80;;;;;;;8.68;58.48;102298.81;688717;28;1230;-83
2022/04/29 01:25:42;;;;;;;11.00;6.70;;;;;;;8.68;58.25;102292.69;684983;28;1141;-82
2022/04/29 01:26:04;;;;;;;9.80;6.70;;;;;;;8.74;58.62;102311.28;685418;28;1182;-82
2022/04/29 01:26:26;;;;;;;10.18;7.00;;;;;;;8.66;58.36;102292.59;687740;28;1229;-84
2022/04/29 01:26:46;;;;;;;10.57;6.85;;;;;;;8.71;58.32;102305.88;690492;28;864;-84
2022/04/29 01:27:10;;;;;;;11.67;7.40;;;;;;;8.61;58.80;102292.28;691559;28;1123;-85
2022/04/29 01:27:37;;;;;;;11.20;7.13;;;;;;;8.71;58.68;102311.09;693159;28;839;-84
2022/04/29 01:27:59;;;;;;;13.98;7.28;;;;;;;8.64;58.63;102291.59;689951;28;1395;-84
2022/04/29 01:28:21;;;;;;;13.85;6.57;;;;;;;8.71;58.30;102312.00;692070;28;1332;-84
2022/04/29 01:28:46;;;;;;;11.80;6.90;;;;;;;8.58;58.51;102289.50;688384;28;799;-84
2022/04/29 01:29:08;;;;;;;10.68;6.95;;;;;;;8.61;58.79;102296.59;687613;28;1193;-84
2022/04/29 01:29:31;;;;;;;12.10;6.88;;;;;;;8.59;58.52;102286.09;687462;28;807;-83
2022/04/29 01:29:58;;;;;;;12.63;6.50;;;;;;;8.66;58.47;102307.31;689493;28;1378;-84
2022/04/29 01:30:19;;;;;;;11.13;6.63;;;;;;;8.53;58.46;102279.63;695510;28;1237;-84
2022/04/29 01:30:41;;;;;;;13.07;7.00;;;;;;;8.54;58.57;102291.81;690376;28;1632;-85
2022/04/29 01:31:03;;;;;;;13.23;7.13;;;;;;;8.59;59.07;102303.41;687594;28;1130;-85
2022/04/29 01:31:24;;;;;;;12.70;7.15;;;;;;;8.52;58.56;102288.25;692838;28;1248;-84
2022/04/29 01:31:48;;;;;;;11.43;7.03;;;;;;;8.58;59.07;102296.41;694887;28;1121;-85
2022/04/29 01:32:09;;;;;;;11.25;7.18;;;;;;;8.58;59.06;102296.41;693087;28;1103;-84
2022/04/29 01:32:32;;;;;;;10.95;7.03;;;;;;;8.46;58.72;102279.25;693087;28;1377;-84
2022/04/29 01:32:54;;;;;;;13.45;6.75;;;;;;;8.49;58.80;102295.03;687579;28;1132;-84
2022/04/29 01:33:16;;;;;;;13.10;6.72;;;;;;;8.54;59.26;102297.91;689008;28;1202;-84
2022/04/29 01:33:40;;;;;;;12.88;7.30;;;;;;;8.55;58.98;102299.75;690100;28;1200;-84
2022/04/29 01:34:02;;;;;;;11.30;7.60;;;;;;;8.46;59.11;102292.25;691897;28;1708;-85
2022/04/29 01:34:23;;;;;;;10.45;7.40;;;;;;;8.50;59.07;102301.16;693202;28;1162;-84
2022/04/29 01:34:44;;;;;;;11.15;6.90;;;;;;;8.50;59.06;102302.03;689494;28;1231;-84
2022/04/29 01:35:07;;;;;;;11.40;6.60;;;;;;;8.44;58.73;102290.38;695731;28;1362;-84
2022/04/29 01:35:27;;;;;;;11.70;6.50;;;;;;;8.40;59.42;102289.28;695792;28;1370;-84
2022/04/29 01:35:48;;;;;;;11.48;6.80;;;;;;;8.50;58.84;102307.22;692927;28;1562;-84
2022/04/29 01:36:11;;;;;;;11.55;6.90;;;;;;;8.41;59.11;102284.97;690210;28;1394;-85
2022/04/29 01:36:32;;;;;;;11.45;6.95;;;;;;;8.40;58.91;102289.28;690421;28;854;-84
2022/04/29 01:36:53;;;;;;;9.88;6.50;;;;;;;8.45;58.72;102295.66;687675;28;1296;-84
2022/04/29 01:37:14;;;;;;;8.40;6.30;;;;;;;8.40;59.13;102294.47;690351;28;1217;-84
2022/04/29 01:37:35;;;;;;;9.60;6.33;;;;;;;8.38;59.47;102284.78;690579;28;1686;-85
2022/04/29 01:37:56;;;;;;;10.38;6.60;;;;;;;8.38;58.95;102290.88;687715;28;1128;-84
2022/04/29 01:38:17;;;;;;;11.60;6.78;;;;;;;8.37;58.78;102283.91;691257;28;1527;-84
2022/04/29 01:38:38;;;;;;;13.90;7.45;;;;;;;8.42;58.95;102297.19;691241;28;1438;-84
2022/04/29 01:39:00;;;;;;;13.77;7.25;;;;;;;8.38;58.74;102295.19;687684;28;1359;-84
2022/04/29 01:39:20;;;;;;;13.07;7.32;;;;;;;8.38;59.06;102285.69;690353;28;1083;-84
2022/04/29 01:39:41;;;;;;;10.07;6.80;;;;;;;8.42;58.90;102298.06;692436;28;1484;-85
2022/04/29 01:40:03;;;;;;;10.87;7.17;;;;;;;8.44;59.22;102301.69;695791;28;1197;-85
2022/04/29 01:40:24;;;;;;;11.15;6.80;;;;;;;8.40;58.97;102285.78;693130;28;1303;-85
2022/04/29 01:40:45;;;;;;;11.48;6.80;;;;;;;8.47;59.18;102303.53;689610;28;1165;-84
2022/04/29 01:41:10;;;;;;;13.85;7.00;;;;;;;8.43;58.94;102298.97;690357;28;1128;-84
2022/04/29 01:41:35;;;;;;;14.40;7.20;;;;;;;8.35;58.55;102280.28;685076;28;1648;-85
2022/04/29 01:41:56;;;;;;;14.65;7.40;;;;;;;8.40;59.13;102285.78;687588;28;1973;-85
2022/04/29 01:42:17;;;;;;;14.45;7.60;;;;;;;8.40;59.08;102294.47;694573;28;1234;-85
2022/04/29 01:42:39;;;;;;;13.33;7.50;;;;;;;8.45;59.19;102306.06;687859;28;1747;-84
2022/04/29 01:42:59;;;;;;;12.73;7.30;;;;;;;8.44;59.23;102299.06;687137;28;1334;-84
2022/04/29 01:43:20;;;;;;;11.02;7.00;;;;;;;8.34;58.78;102283.69;692617;28;1428;-84
2022/04/29 01:43:41;;;;;;;12.18;7.22;;;;;;;8.40;59.23;102298.81;687721;28;1203;-84
2022/04/29 01:44:04;;;;;;;12.93;7.03;;;;;;;8.34;58.76;102286.28;690223;28;1394;-84
2022/04/29 01:44:25;;;;;;;13.07;6.83;;;;;;;8.33;58.92;102289.69;687765;28;1168;-84
2022/04/29 01:44:45;;;;;;;11.37;6.70;;;;;;;8.35;59.44;102285.47;685011;28;1137;-84
2022/04/29 01:45:10;;;;;;;12.07;6.78;;;;;;;8.42;59.14;102303.25;690777;28;1168;-84
2022/04/29 01:45:54;;;;;;;14.40;7.45;;;;;;;8.29;59.29;102283.41;684720;28;1273;-84
2022/04/29 01:46:32;;;;;;;17.02;7.53;;;;;;;8.37;59.59;102299.50;676957;29;1294;-84
2022/04/29 01:47:14;;;;;;;15.25;7.90;;;;;;;8.38;59.54;102301.28;676694;29;1157;-84